Time;durP1;ratioP1;P1;durP2;ratioP2;P2;SDS_P1;SDS_P2;PMS_P1;PMS_P2;Temp;Humidity;BMP_temperature;BMP_pressure;BME280_temperature;BME280_humidity;BME280_pressure;Samples;Min_cycle;Max_cycle;Signal;HPM_P1;HPM_P2
2022/04/08 00:01:53;;;;;;;;;;;8.60;99.90;;;;;;4952849;28;20311;-65
2022/04/08 00:04:21;;;;;;;;;;;8.60;99.90;;;;;;4953303;28;19927;-66
2022/04/08 00:06:50;;;;;;;;;;;8.60;99.90;;;;;;4953312;29;20001;-66
2022/04/08 00:09:17;;;;;;;;;;;8.60;99.90;;;;;;4940425;29;19926;-67
2022/04/08 00:11:44;;;;;;;;;;;8.60;99.90;;;;;;4953695;28;19926;-65
2022/04/08 00:14:12;;;;;;;;;;;8.60;99.90;;;;;;4952902;28;20453;-64
2022/04/08 00:16:39;;;;;;;;;;;8.50;99.90;;;;;;4940297;29;20572;-65
2022/04/08 00:19:07;;;;;;;;;;;8.50;99.90;;;;;;4954246;28;20038;-66
2022/04/08 00:21:34;;;;;;;;;;;8.60;99.90;;;;;;4952556;28;20006;-66
2022/04/08 00:24:01;;;;;;;;;;;8.50;99.90;;;;;;4953441;28;20358;-66
2022/04/08 00:26:28;;;;;;;;;;;8.50;99.90;;;;;;4952869;28;19926;-66
2022/04/08 00:28:56;;;;;;;;;;;8.50;99.90;;;;;;4951211;29;20294;-66
2022/04/08 00:31:23;;;;;;;;;;;8.50;99.90;;;;;;4944964;29;19922;-66
2022/04/08 00:33:50;;;;;;;;;;;8.40;99.90;;;;;;4952994;28;20365;-65
2022/04/08 00:36:17;;;;;;;;;;;8.40;99.90;;;;;;4953312;28;19926;-66
2022/04/08 00:38:44;;;;;;;;;;;8.40;99.90;;;;;;4940696;29;19926;-65
2022/04/08 00:41:13;;;;;;;;;;;8.30;99.90;;;;;;4952838;28;20378;-66
2022/04/08 00:43:40;;;;;;;;;;;8.30;99.90;;;;;;4953042;28;20378;-66
2022/04/08 00:46:11;;;;;;;;;;;8.30;99.90;;;;;;4951897;28;19926;-66
2022/04/08 00:48:39;;;;;;;;;;;8.30;99.90;;;;;;4953184;28;19930;-66
2022/04/08 00:51:06;;;;;;;;;;;8.30;99.90;;;;;;4946086;28;19938;-66
2022/04/08 00:53:35;;;;;;;;;;;8.30;99.90;;;;;;4949733;29;20374;-65
2022/04/08 00:56:03;;;;;;;;;;;8.30;99.90;;;;;;4952841;28;20346;-65
2022/04/08 00:58:32;;;;;;;;;;;8.30;99.90;;;;;;4949129;28;19926;-66
2022/04/08 01:00:59;;;;;;;;;;;8.20;99.90;;;;;;4951979;28;20021;-65
2022/04/08 01:03:27;;;;;;;;;;;8.20;99.90;;;;;;4953196;28;19978;-65
2022/04/08 01:05:54;;;;;;;;;;;8.20;99.90;;;;;;4952263;28;19927;-66
2022/04/08 01:08:21;;;;;;;;;;;8.20;99.90;;;;;;4952390;28;20360;-66
2022/04/08 01:10:50;;;;;;;;;;;8.20;99.90;;;;;;4951678;28;19926;-64
2022/04/08 01:13:17;;;;;;;;;;;8.20;99.90;;;;;;4950600;28;19978;-66
2022/04/08 01:15:45;;;;;;;;;;;8.10;99.90;;;;;;4950809;28;19926;-66
2022/04/08 01:18:12;;;;;;;;;;;8.10;99.90;;;;;;4945944;28;19922;-67
2022/04/08 01:20:39;;;;;;;;;;;8.10;99.90;;;;;;4951974;28;19926;-67
2022/04/08 01:23:06;;;;;;;;;;;8.00;99.90;;;;;;4950526;28;20411;-65
2022/04/08 01:25:33;;;;;;;;;;;8.00;99.90;;;;;;4950163;28;19926;-66
2022/04/08 01:28:01;;;;;;;;;;;7.90;99.90;;;;;;4951775;28;20313;-66
2022/04/08 01:30:28;;;;;;;;;;;8.00;99.90;;;;;;4949992;28;20007;-66
2022/04/08 01:32:56;;;;;;;;;;;7.90;99.90;;;;;;4932262;28;19972;-66
2022/04/08 01:35:23;;;;;;;;;;;7.90;99.90;;;;;;4948836;29;19941;-66
2022/04/08 01:37:50;;;;;;;;;;;7.90;99.90;;;;;;4950307;28;19922;-66
2022/04/08 01:40:18;;;;;;;;;;;7.90;99.90;;;;;;4948870;28;19929;-65
2022/04/08 01:42:45;;;;;;;;;;;8.00;99.90;;;;;;4950818;28;19926;-65
2022/04/08 01:45:12;;;;;;;;;;;8.00;99.90;;;;;;4950138;28;20030;-65
2022/04/08 01:47:39;;;;;;;;;;;8.00;99.90;;;;;;4951581;28;19989;-65
2022/04/08 01:50:07;;;;;;;;;;;7.90;99.90;;;;;;4950142;28;20467;-66
2022/04/08 01:52:34;;;;;;;;;;;7.90;99.90;;;;;;4940772;28;20025;-64
2022/04/08 01:55:05;;;;;;;;;;;7.90;99.90;;;;;;4950453;28;19949;-67
2022/04/08 01:57:33;;;;;;;;;;;7.80;99.90;;;;;;4950801;28;19930;-66
2022/04/08 02:00:02;;;;;;;;;;;7.80;99.90;;;;;;4951410;28;20321;-66
2022/04/08 02:02:38;;;;;;;;;;;7.70;99.90;;;;;;4951581;28;20429;-66
2022/04/08 02:05:06;;;;;;;;;;;7.70;99.90;;;;;;4941850;29;19978;-66
2022/04/08 02:07:33;;;;;;;;;;;7.60;99.90;;;;;;4947062;29;19932;-66
2022/04/08 02:10:00;;;;;;;;;;;7.60;99.90;;;;;;4940632;28;19922;-66
2022/04/08 02:12:28;;;;;;;;;;;7.50;99.90;;;;;;4949113;28;19941;-64
2022/04/08 02:14:55;;;;;;;;;;;7.50;99.90;;;;;;4950133;28;19964;-66
2022/04/08 02:17:25;;;;;;;;;;;7.50;99.90;;;;;;4950954;28;19993;-65
2022/04/08 02:19:53;;;;;;;;;;;7.50;99.90;;;;;;4944600;28;20397;-64
2022/04/08 02:22:20;;;;;;;;;;;7.50;99.90;;;;;;4940800;28;19927;-64
2022/04/08 02:24:49;;;;;;;;;;;7.50;99.90;;;;;;4946794;29;19923;-65
2022/04/08 02:27:17;;;;;;;;;;;7.50;99.90;;;;;;4951280;28;19934;-66
2022/04/08 02:29:44;;;;;;;;;;;7.40;99.90;;;;;;4948836;28;19929;-66
2022/04/08 02:32:11;;;;;;;;;;;7.50;99.90;;;;;;4942806;29;20283;-66
2022/04/08 02:34:38;;;;;;;;;;;7.40;99.90;;;;;;4951332;28;19932;-65
2022/04/08 02:37:07;;;;;;;;;;;7.40;99.90;;;;;;4950899;28;19961;-66
2022/04/08 02:39:37;;;;;;;;;;;7.40;99.90;;;;;;4951473;28;20233;-66
2022/04/08 02:42:05;;;;;;;;;;;7.40;99.90;;;;;;4949983;28;19922;-66
2022/04/08 02:44:32;;;;;;;;;;;7.40;99.90;;;;;;4950608;28;20390;-66
2022/04/08 02:46:59;;;;;;;;;;;7.30;99.90;;;;;;4951634;28;19967;-64
2022/04/08 02:49:27;;;;;;;;;;;7.30;99.90;;;;;;4946916;28;19930;-65
2022/04/08 02:51:55;;;;;;;;;;;7.30;99.90;;;;;;4949360;29;19926;-67
2022/04/08 02:54:22;;;;;;;;;;;7.20;99.90;;;;;;4951686;28;19946;-67
2022/04/08 02:56:49;;;;;;;;;;;7.20;99.90;;;;;;4953269;28;19952;-66
2022/04/08 02:59:16;;;;;;;;;;;7.10;99.90;;;;;;4946895;28;19957;-65
2022/04/08 03:01:43;;;;;;;;;;;7.10;99.90;;;;;;4954563;28;20293;-64
2022/04/08 03:04:11;;;;;;;;;;;7.10;99.90;;;;;;4954371;28;19926;-66
2022/04/08 03:06:38;;;;;;;;;;;7.10;99.90;;;;;;4954480;28;19926;-66
2022/04/08 03:09:05;;;;;;;;;;;7.10;99.90;;;;;;4951654;28;19952;-66
2022/04/08 03:11:33;;;;;;;;;;;7.10;99.90;;;;;;4943100;29;20404;-66
2022/04/08 03:14:02;;;;;;;;;;;7.00;99.90;;;;;;4959194;28;19926;-66
2022/04/08 03:16:29;;;;;;;;;;;7.00;99.90;;;;;;4952465;28;19927;-66
2022/04/08 03:18:57;;;;;;;;;;;7.10;99.90;;;;;;4953807;28;20457;-65
2022/04/08 03:21:25;;;;;;;;;;;7.10;99.90;;;;;;4952167;28;19926;-65
2022/04/08 03:23:52;;;;;;;;;;;7.10;99.90;;;;;;4954498;28;19945;-66
2022/04/08 03:26:19;;;;;;;;;;;7.10;99.90;;;;;;4953490;28;19923;-66
2022/04/08 03:28:46;;;;;;;;;;;7.00;99.90;;;;;;4953490;28;20344;-70
2022/04/08 03:31:14;;;;;;;;;;;7.00;99.90;;;;;;4953358;28;20473;-66
2022/04/08 03:33:41;;;;;;;;;;;7.00;99.90;;;;;;4954205;28;19922;-66
2022/04/08 03:36:08;;;;;;;;;;;6.90;99.90;;;;;;4953758;28;20024;-66
2022/04/08 03:38:35;;;;;;;;;;;6.80;99.90;;;;;;4953942;28;20453;-66
2022/04/08 03:41:03;;;;;;;;;;;6.80;99.90;;;;;;4942105;28;20297;-66
2022/04/08 03:43:30;;;;;;;;;;;6.80;99.90;;;;;;4949994;29;19926;-66
2022/04/08 03:45:57;;;;;;;;;;;6.80;99.90;;;;;;4952173;28;19977;-66
2022/04/08 03:48:25;;;;;;;;;;;6.70;99.90;;;;;;4947357;29;20005;-65
2022/04/08 03:50:52;;;;;;;;;;;6.70;99.90;;;;;;4953243;28;19933;-65
2022/04/08 03:53:20;;;;;;;;;;;6.70;99.90;;;;;;4952893;28;20044;-65
2022/04/08 03:55:47;;;;;;;;;;;6.80;99.90;;;;;;4952747;29;20314;-66
2022/04/08 03:58:14;;;;;;;;;;;6.80;99.90;;;;;;4952883;28;20285;-67
2022/04/08 04:00:42;;;;;;;;;;;6.80;99.90;;;;;;4949406;28;19938;-66
2022/04/08 04:03:09;;;;;;;;;;;6.80;99.90;;;;;;4952755;28;20350;-66
2022/04/08 04:05:43;;;;;;;;;;;6.70;99.90;;;;;;4947051;28;20488;-65
2022/04/08 04:08:18;;;;;;;;;;;6.70;99.90;;;;;;4949196;28;19931;-66
2022/04/08 04:10:46;;;;;;;;;;;6.70;99.90;;;;;;4943411;28;19923;-64
2022/04/08 04:13:13;;;;;;;;;;;6.70;99.90;;;;;;4964419;28;20414;-66
2022/04/08 04:15:41;;;;;;;;;;;6.70;99.90;;;;;;4950358;29;19958;-65
2022/04/08 04:18:08;;;;;;;;;;;6.70;99.90;;;;;;4944816;28;19930;-65
2022/04/08 04:20:35;;;;;;;;;;;6.70;99.90;;;;;;4945200;28;19976;-65
2022/04/08 04:23:03;;;;;;;;;;;6.50;99.90;;;;;;4946376;28;19930;-65
2022/04/08 04:25:30;;;;;;;;;;;6.50;99.90;;;;;;4949539;29;20386;-65
2022/04/08 04:27:57;;;;;;;;;;;6.50;99.90;;;;;;4952823;28;20342;-64
2022/04/08 04:30:27;;;;;;;;;;;6.60;99.90;;;;;;4949839;29;20009;-66
2022/04/08 04:32:56;;;;;;;;;;;6.60;99.90;;;;;;4950573;28;19926;-66
2022/04/08 04:35:24;;;;;;;;;;;6.50;99.90;;;;;;4951926;28;19989;-67
2022/04/08 04:37:51;;;;;;;;;;;6.50;99.90;;;;;;4950648;28;19962;-64
2022/04/08 04:40:18;;;;;;;;;;;6.50;99.90;;;;;;4952561;28;20010;-67
2022/04/08 04:42:45;;;;;;;;;;;6.60;99.90;;;;;;4952526;29;20024;-66
2022/04/08 04:45:13;;;;;;;;;;;6.60;99.90;;;;;;4952817;28;20405;-66
2022/04/08 04:47:41;;;;;;;;;;;6.50;99.90;;;;;;4962980;28;19986;-66
2022/04/08 04:50:08;;;;;;;;;;;6.50;99.90;;;;;;4946860;28;19965;-68
2022/04/08 04:52:35;;;;;;;;;;;6.50;99.90;;;;;;4947389;28;20396;-66
2022/04/08 04:55:03;;;;;;;;;;;6.50;99.90;;;;;;4946677;28;20285;-66
2022/04/08 04:57:30;;;;;;;;;;;6.40;99.90;;;;;;4937345;29;20014;-65
2022/04/08 04:59:57;;;;;;;;;;;6.50;99.90;;;;;;4943504;28;19934;-67
2022/04/08 05:02:25;;;;;;;;;;;6.50;99.90;;;;;;4944153;28;20406;-67
2022/04/08 05:04:52;;;;;;;;;;;6.50;99.90;;;;;;4944158;28;19926;-65
2022/04/08 05:07:19;;;;;;;;;;;6.50;99.90;;;;;;4944933;28;19927;-67
2022/04/08 05:09:46;;;;;;;;;;;6.60;99.90;;;;;;4951049;28;19926;-65
2022/04/08 05:12:13;;;;;;;;;;;6.60;99.90;;;;;;4943859;28;19926;-67
2022/04/08 05:14:41;;;;;;;;;;;6.60;99.90;;;;;;4950911;28;19928;-65
2022/04/08 05:17:08;;;;;;;;;;;6.60;99.90;;;;;;4943668;28;20021;-67
2022/04/08 05:19:35;;;;;;;;;;;6.60;99.90;;;;;;4951523;28;19930;-67
2022/04/08 05:22:02;;;;;;;;;;;6.70;99.90;;;;;;4948794;28;20339;-67
2022/04/08 05:24:29;;;;;;;;;;;6.70;99.90;;;;;;4948052;28;20014;-66
2022/04/08 05:26:57;;;;;;;;;;;6.70;99.90;;;;;;4952367;28;19926;-66
2022/04/08 05:29:24;;;;;;;;;;;6.70;99.90;;;;;;4952456;28;20121;-65
2022/04/08 05:31:51;;;;;;;;;;;6.70;99.90;;;;;;4951716;28;19933;-65
2022/04/08 05:34:18;;;;;;;;;;;6.80;99.90;;;;;;4943437;29;19930;-66
2022/04/08 05:36:46;;;;;;;;;;;6.80;99.90;;;;;;4944565;28;19962;-65
2022/04/08 05:39:13;;;;;;;;;;;6.80;99.90;;;;;;4947722;29;20462;-66
2022/04/08 05:41:40;;;;;;;;;;;6.90;99.90;;;;;;4947711;29;20398;-66
2022/04/08 05:44:07;;;;;;;;;;;6.90;99.90;;;;;;4952627;28;19922;-66
2022/04/08 05:46:35;;;;;;;;;;;6.90;99.90;;;;;;4951445;28;19958;-65
2022/04/08 05:49:04;;;;;;;;;;;7.00;99.90;;;;;;4947890;28;20422;-64
2022/04/08 05:51:31;;;;;;;;;;;7.10;99.90;;;;;;4936508;28;19926;-67
2022/04/08 05:54:17;;;;;;;;;;;7.10;99.90;;;;;;4935525;28;20279;-64
2022/04/08 05:56:44;;;;;;;;;;;7.10;99.90;;;;;;4938393;29;20437;-67
2022/04/08 05:59:11;;;;;;;;;;;7.10;99.90;;;;;;4935770;28;19926;-64
2022/04/08 06:01:38;;;;;;;;;;;7.20;99.90;;;;;;4950916;28;19930;-66
2022/04/08 06:04:05;;;;;;;;;;;7.20;99.90;;;;;;4951768;28;19923;-66
2022/04/08 06:06:32;;;;;;;;;;;7.30;99.90;;;;;;4949822;28;20306;-66
2022/04/08 06:09:00;;;;;;;;;;;7.30;99.90;;;;;;4950094;28;19938;-65
2022/04/08 06:11:28;;;;;;;;;;;7.40;99.90;;;;;;4940258;29;20438;-66
2022/04/08 06:13:56;;;;;;;;;;;7.40;99.90;;;;;;4951712;28;20827;-67
2022/04/08 06:16:25;;;;;;;;;;;7.50;99.90;;;;;;4941641;28;19922;-66
2022/04/08 06:18:53;;;;;;;;;;;7.50;99.90;;;;;;4950373;28;19927;-66
2022/04/08 06:21:20;;;;;;;;;;;7.50;99.90;;;;;;4950592;28;20445;-66
2022/04/08 06:23:47;;;;;;;;;;;7.60;99.90;;;;;;4954782;28;19950;-65
2022/04/08 06:26:17;;;;;;;;;;;7.60;99.90;;;;;;4954673;28;19976;-66
2022/04/08 06:28:44;;;;;;;;;;;7.60;99.90;;;;;;4954446;28;19927;-65
2022/04/08 06:31:12;;;;;;;;;;;7.70;99.90;;;;;;4954867;28;19926;-64
2022/04/08 06:33:45;;;;;;;;;;;7.80;99.90;;;;;;4951102;28;19932;-65
2022/04/08 06:36:12;;;;;;;;;;;7.80;99.90;;;;;;4953188;29;19926;-66
2022/04/08 06:38:40;;;;;;;;;;;8.00;99.90;;;;;;4954719;28;19926;-66
2022/04/08 06:41:07;;;;;;;;;;;8.00;99.90;;;;;;4954939;28;20064;-64
2022/04/08 06:43:35;;;;;;;;;;;8.10;99.90;;;;;;4951370;29;19923;-65
2022/04/08 06:46:02;;;;;;;;;;;8.20;99.90;;;;;;4946949;29;20285;-65
2022/04/08 06:48:30;;;;;;;;;;;8.30;99.90;;;;;;4954749;28;19937;-66
2022/04/08 06:50:58;;;;;;;;;;;8.50;99.90;;;;;;4947011;28;19927;-66
2022/04/08 06:53:26;;;;;;;;;;;8.50;99.90;;;;;;4954409;28;20310;-65
2022/04/08 06:55:53;;;;;;;;;;;8.50;99.90;;;;;;4969839;28;20450;-66
2022/04/08 06:58:20;;;;;;;;;;;8.50;99.90;;;;;;4953473;28;19937;-66
2022/04/08 07:00:48;;;;;;;;;;;8.60;99.90;;;;;;4949610;28;20377;-65
2022/04/08 07:03:15;;;;;;;;;;;8.60;99.90;;;;;;4947037;29;20370;-65
2022/04/08 07:05:42;;;;;;;;;;;8.80;99.90;;;;;;4968681;28;19926;-66
2022/04/08 07:08:09;;;;;;;;;;;8.90;99.90;;;;;;4941666;29;19950;-65
2022/04/08 07:10:39;;;;;;;;;;;9.00;99.90;;;;;;4952799;28;20010;-66
2022/04/08 07:13:07;;;;;;;;;;;8.80;99.90;;;;;;4953855;28;19926;-66
2022/04/08 07:15:34;;;;;;;;;;;8.80;99.90;;;;;;4949923;28;20374;-67
2022/04/08 07:18:05;;;;;;;;;;;8.80;99.90;;;;;;4954344;28;19926;-67
2022/04/08 07:20:32;;;;;;;;;;;8.80;99.90;;;;;;4952677;28;20308;-68
2022/04/08 07:23:02;;;;;;;;;;;8.80;99.90;;;;;;4947058;28;19937;-65
2022/04/08 07:25:32;;;;;;;;;;;8.80;99.90;;;;;;4942786;29;20021;-65
2022/04/08 07:27:59;;;;;;;;;;;8.70;99.90;;;;;;4953611;28;19926;-66
2022/04/08 07:30:27;;;;;;;;;;;8.90;99.90;;;;;;4953258;29;20025;-66
2022/04/08 07:32:55;;;;;;;;;;;9.00;99.90;;;;;;4950547;28;19953;-65
2022/04/08 07:35:23;;;;;;;;;;;9.10;99.90;;;;;;4949646;29;19922;-67
2022/04/08 07:37:50;;;;;;;;;;;9.00;99.90;;;;;;4950245;29;20389;-67
2022/04/08 07:40:19;;;;;;;;;;;9.00;99.90;;;;;;4950930;29;20005;-67
2022/04/08 07:42:46;;;;;;;;;;;9.10;99.90;;;;;;4953131;28;20061;-65
2022/04/08 07:45:14;;;;;;;;;;;9.00;99.90;;;;;;4953044;28;19999;-65
2022/04/08 07:47:41;;;;;;;;;;;9.00;99.90;;;;;;4952987;28;20346;-65
2022/04/08 07:50:10;;;;;;;;;;;9.10;99.90;;;;;;4954612;28;20266;-64
2022/04/08 07:52:38;;;;;;;;;;;9.10;99.90;;;;;;4949091;29;20011;-67
2022/04/08 07:55:06;;;;;;;;;;;9.20;99.90;;;;;;4945517;29;19927;-66
2022/04/08 07:57:33;;;;;;;;;;;9.30;99.90;;;;;;4951918;28;20374;-67
2022/04/08 08:00:00;;;;;;;;;;;9.30;99.90;;;;;;4953067;28;20301;-66
2022/04/08 08:02:37;;;;;;;;;;;9.40;99.90;;;;;;4952767;28;20016;-66
2022/04/08 08:05:05;;;;;;;;;;;9.30;99.90;;;;;;4952843;28;19922;-65
2022/04/08 08:07:42;;;;;;;;;;;9.40;99.90;;;;;;4953281;28;19923;-65
2022/04/08 08:10:13;;;;;;;;;;;9.60;99.90;;;;;;4943455;28;19934;-67
2022/04/08 08:12:40;;;;;;;;;;;9.70;99.90;;;;;;4952902;28;19926;-66
2022/04/08 08:15:07;;;;;;;;;;;9.80;99.90;;;;;;4944976;28;19926;-66
2022/04/08 08:17:35;;;;;;;;;;;9.90;99.90;;;;;;4951981;29;19985;-65
2022/04/08 08:20:04;;;;;;;;;;;9.90;99.90;;;;;;4953559;28;20216;-65
2022/04/08 08:22:31;;;;;;;;;;;9.80;99.90;;;;;;4952356;28;19927;-66
2022/04/08 08:24:58;;;;;;;;;;;9.80;99.90;;;;;;4947245;28;20005;-65
2022/04/08 08:27:25;;;;;;;;;;;9.70;99.90;;;;;;4951738;28;19922;-66
2022/04/08 08:29:53;;;;;;;;;;;9.80;99.90;;;;;;4949404;28;20342;-65
2022/04/08 08:32:21;;;;;;;;;;;9.90;99.90;;;;;;4946900;29;20304;-65
2022/04/08 08:34:49;;;;;;;;;;;10.10;99.90;;;;;;4952813;28;20527;-65
2022/04/08 08:37:16;;;;;;;;;;;10.20;99.90;;;;;;4952280;28;19930;-67
2022/04/08 08:39:43;;;;;;;;;;;10.10;99.90;;;;;;4954994;28;19926;-65
2022/04/08 08:42:11;;;;;;;;;;;10.20;99.90;;;;;;4953282;29;19930;-65
2022/04/08 08:44:39;;;;;;;;;;;10.20;99.90;;;;;;4952414;28;20042;-65
2022/04/08 08:47:10;;;;;;;;;;;10.10;99.90;;;;;;4953679;28;19946;-66
2022/04/08 08:49:38;;;;;;;;;;;10.00;99.90;;;;;;4948917;28;19922;-65
2022/04/08 08:52:09;;;;;;;;;;;9.90;99.90;;;;;;4953329;28;19929;-66
2022/04/08 08:54:36;;;;;;;;;;;9.80;99.90;;;;;;4952174;28;19933;-66
2022/04/08 08:57:03;;;;;;;;;;;9.70;99.90;;;;;;4952481;28;20029;-66
2022/04/08 08:59:31;;;;;;;;;;;9.80;99.90;;;;;;4966235;28;19930;-66
2022/04/08 09:02:04;;;;;;;;;;;9.60;99.90;;;;;;4952420;28;19932;-66
2022/04/08 09:04:31;;;;;;;;;;;9.50;99.90;;;;;;4952449;28;20496;-66
2022/04/08 09:06:59;;;;;;;;;;;9.50;99.90;;;;;;4947329;28;19922;-66
2022/04/08 09:09:32;;;;;;;;;;;9.50;99.90;;;;;;4948757;29;19926;-66
2022/04/08 09:12:12;;;;;;;;;;;9.50;99.90;;;;;;4952849;28;19926;-67
2022/04/08 09:14:43;;;;;;;;;;;9.30;99.90;;;;;;4952724;28;20416;-68
2022/04/08 09:17:11;;;;;;;;;;;9.40;99.90;;;;;;4950328;29;19930;-67
2022/04/08 09:19:38;;;;;;;;;;;9.60;99.90;;;;;;4953743;28;19989;-67
2022/04/08 09:22:05;;;;;;;;;;;9.70;99.90;;;;;;4950117;28;19957;-66
2022/04/08 09:24:33;;;;;;;;;;;9.80;99.90;;;;;;4953354;28;19989;-68
2022/04/08 09:27:01;;;;;;;;;;;10.00;99.90;;;;;;4951924;28;20361;-67
2022/04/08 09:29:28;;;;;;;;;;;10.10;99.90;;;;;;4946878;28;19962;-67
2022/04/08 09:32:16;;;;;;;;;;;10.10;99.90;;;;;;4946871;29;19926;-66
2022/04/08 09:34:43;;;;;;;;;;;10.10;99.90;;;;;;4950482;28;20425;-66
2022/04/08 09:37:11;;;;;;;;;;;10.00;99.90;;;;;;4951531;28;19974;-66
2022/04/08 09:39:54;;;;;;;;;;;10.00;99.90;;;;;;4951070;28;19933;-66
2022/04/08 09:42:22;;;;;;;;;;;10.00;99.90;;;;;;4946239;28;19969;-67
2022/04/08 09:44:49;;;;;;;;;;;9.90;99.90;;;;;;4950941;28;19926;-65
2022/04/08 09:47:17;;;;;;;;;;;9.80;99.90;;;;;;4949889;29;19928;-67
2022/04/08 09:49:44;;;;;;;;;;;9.60;99.90;;;;;;4952357;28;20366;-66
2022/04/08 09:52:13;;;;;;;;;;;9.50;99.90;;;;;;4951747;28;20034;-66
2022/04/08 09:54:42;;;;;;;;;;;9.20;99.90;;;;;;4943848;28;19961;-67
2022/04/08 09:57:16;;;;;;;;;;;9.00;99.90;;;;;;4952199;28;20389;-66
2022/04/08 09:59:49;;;;;;;;;;;8.80;99.90;;;;;;4950653;29;19926;-66
2022/04/08 10:02:23;;;;;;;;;;;8.60;99.90;;;;;;4951207;28;20535;-67
2022/04/08 10:05:06;;;;;;;;;;;8.60;99.90;;;;;;4950820;28;20012;-66
2022/04/08 10:07:34;;;;;;;;;;;8.60;99.90;;;;;;4951301;28;19926;-67
2022/04/08 10:10:09;;;;;;;;;;;8.80;99.90;;;;;;4950305;28;19930;-66
2022/04/08 10:12:55;;;;;;;;;;;8.90;99.90;;;;;;4952016;28;19965;-65
2022/04/08 10:15:28;;;;;;;;;;;9.10;99.90;;;;;;4952140;28;20339;-66
2022/04/08 10:17:59;;;;;;;;;;;9.10;99.90;;;;;;4942828;28;19926;-67
2022/04/08 10:20:27;;;;;;;;;;;8.90;99.90;;;;;;4941383;29;19927;-66
2022/04/08 10:23:04;;;;;;;;;;;8.80;99.90;;;;;;4938218;29;19929;-66
2022/04/08 10:25:38;;;;;;;;;;;8.60;99.90;;;;;;4934258;29;19926;-67
2022/04/08 10:28:07;;;;;;;;;;;8.70;99.90;;;;;;4947727;29;19930;-66
2022/04/08 10:30:36;;;;;;;;;;;8.60;99.90;;;;;;4942625;28;20065;-66
2022/04/08 10:33:06;;;;;;;;;;;8.50;99.90;;;;;;4939417;29;20002;-67
2022/04/08 10:35:33;;;;;;;;;;;8.40;99.90;;;;;;4939082;29;20400;-66
2022/04/08 10:38:02;;;;;;;;;;;8.40;99.90;;;;;;4951026;28;19964;-66
2022/04/08 10:40:36;;;;;;;;;;;8.50;99.90;;;;;;4950181;29;19930;-66
2022/04/08 10:43:10;;;;;;;;;;;8.80;99.90;;;;;;4945284;29;20400;-66
2022/04/08 10:45:37;;;;;;;;;;;9.00;99.90;;;;;;4943378;28;20015;-66
2022/04/08 10:48:11;;;;;;;;;;;9.30;99.90;;;;;;4946133;28;19926;-67
2022/04/08 10:50:39;;;;;;;;;;;9.50;99.90;;;;;;4951707;29;20330;-67
2022/04/08 10:53:06;;;;;;;;;;;9.40;99.90;;;;;;4939921;28;19926;-66
2022/04/08 10:55:56;;;;;;;;;;;9.60;99.90;;;;;;4946350;29;20445;-67
2022/04/08 10:58:30;;;;;;;;;;;9.80;99.90;;;;;;4943742;29;19961;-67
2022/04/08 11:00:58;;;;;;;;;;;9.60;99.90;;;;;;4951076;28;19930;-67
2022/04/08 11:03:29;;;;;;;;;;;9.40;99.90;;;;;;4951569;28;19923;-67
2022/04/08 11:05:56;;;;;;;;;;;9.40;99.90;;;;;;4952015;28;19926;-67
2022/04/08 11:08:25;;;;;;;;;;;9.40;99.90;;;;;;4951326;29;19930;-66
2022/04/08 11:10:57;;;;;;;;;;;9.30;99.90;;;;;;4950260;29;19923;-67
2022/04/08 11:13:25;;;;;;;;;;;9.00;99.90;;;;;;4953297;29;20398;-67
2022/04/08 11:15:57;;;;;;;;;;;9.00;99.90;;;;;;4954493;28;20366;-67
2022/04/08 11:18:24;;;;;;;;;;;8.60;99.90;;;;;;4955485;28;19922;-67
2022/04/08 11:20:51;;;;;;;;;;;8.60;99.90;;;;;;4950364;29;20013;-66
2022/04/08 11:23:26;;;;;;;;;;;8.50;99.90;;;;;;4954877;29;19926;-66
2022/04/08 11:25:53;;;;;;;;;;;8.50;99.90;;;;;;4954901;28;20377;-66
2022/04/08 11:28:21;;;;;;;;;;;8.50;99.90;;;;;;4953626;29;20017;-67
2022/04/08 11:30:58;;;;;;;;;;;8.40;99.90;;;;;;4952521;28;20405;-68
2022/04/08 11:33:25;;;;;;;;;;;8.40;99.90;;;;;;4954875;29;19926;-67
2022/04/08 11:36:03;;;;;;;;;;;8.40;99.90;;;;;;4956558;28;20000;-68
2022/04/08 11:38:31;;;;;;;;;;;8.40;99.90;;;;;;4953611;29;20021;-66
2022/04/08 11:41:23;;;;;;;;;;;8.30;99.90;;;;;;4955294;28;20021;-67
2022/04/08 11:43:50;;;;;;;;;;;8.30;99.90;;;;;;4956529;28;19973;-68
2022/04/08 11:46:17;;;;;;;;;;;8.20;99.90;;;;;;4950660;29;20453;-68
2022/04/08 11:48:49;;;;;;;;;;;8.10;99.90;;;;;;4954077;28;20350;-67
2022/04/08 11:51:20;;;;;;;;;;;8.30;99.90;;;;;;4950057;29;20054;-67
2022/04/08 11:53:52;;;;;;;;;;;8.20;99.90;;;;;;4939083;29;19929;-67
2022/04/08 11:56:21;;;;;;;;;;;8.10;99.90;;;;;;4949176;29;19927;-67
2022/04/08 11:58:55;;;;;;;;;;;8.10;99.90;;;;;;4952397;29;19926;-68
2022/04/08 12:01:23;;;;;;;;;;;8.10;99.90;;;;;;4942524;29;19941;-67
2022/04/08 12:03:52;;;;;;;;;;;7.90;99.90;;;;;;4943688;28;20446;-67
2022/04/08 12:06:19;;;;;;;;;;;7.80;99.90;;;;;;4954850;29;20342;-67
2022/04/08 12:08:47;;;;;;;;;;;7.80;99.90;;;;;;4954421;28;19933;-67
2022/04/08 12:11:15;;;;;;;;;;;7.70;99.90;;;;;;4955252;28;19962;-67
2022/04/08 12:13:43;;;;;;;;;;;7.60;99.90;;;;;;4954939;28;19957;-67
2022/04/08 12:16:11;;;;;;;;;;;7.60;99.90;;;;;;4954715;28;19958;-67
2022/04/08 12:18:49;;;;;;;;;;;7.70;99.90;;;;;;4954397;28;20298;-68
2022/04/08 12:21:23;;;;;;;;;;;7.70;99.90;;;;;;4938246;29;20017;-68
2022/04/08 12:23:51;;;;;;;;;;;7.60;99.90;;;;;;4947722;28;19926;-67
2022/04/08 12:26:24;;;;;;;;;;;7.60;99.90;;;;;;4955322;29;19958;-66
2022/04/08 12:29:01;;;;;;;;;;;7.60;99.90;;;;;;4954707;28;19926;-67
2022/04/08 12:31:28;;;;;;;;;;;7.60;99.90;;;;;;4951264;29;19936;-68
2022/04/08 12:33:56;;;;;;;;;;;7.70;99.90;;;;;;4951732;28;19976;-68
2022/04/08 12:36:23;;;;;;;;;;;7.70;99.90;;;;;;4954541;28;20405;-67
2022/04/08 12:38:50;;;;;;;;;;;7.80;99.90;;;;;;4945133;28;20410;-67
2022/04/08 12:41:17;;;;;;;;;;;7.60;99.90;;;;;;4954272;28;19926;-67
2022/04/08 12:43:44;;;;;;;;;;;7.40;99.90;;;;;;4955331;29;20048;-68
2022/04/08 12:46:12;;;;;;;;;;;7.50;99.90;;;;;;4954037;29;19926;-67
2022/04/08 12:48:39;;;;;;;;;;;7.50;99.90;;;;;;4953595;28;19953;-68
2022/04/08 12:51:07;;;;;;;;;;;7.50;99.90;;;;;;4953806;29;19952;-67
2022/04/08 12:53:35;;;;;;;;;;;7.40;99.90;;;;;;4953237;28;19922;-67
2022/04/08 12:56:02;;;;;;;;;;;7.40;99.90;;;;;;4953735;29;20353;-67
2022/04/08 12:58:29;;;;;;;;;;;7.30;99.90;;;;;;4952783;28;20449;-67
2022/04/08 13:00:57;;;;;;;;;;;7.30;99.90;;;;;;4952121;29;19930;-69
2022/04/08 13:03:24;;;;;;;;;;;7.40;99.90;;;;;;4952893;29;19988;-68
2022/04/08 13:05:52;;;;;;;;;;;7.50;99.90;;;;;;4951670;29;19922;-68
2022/04/08 13:08:19;;;;;;;;;;;7.50;99.90;;;;;;4956531;28;19961;-67
2022/04/08 13:10:46;;;;;;;;;;;7.50;99.90;;;;;;4970190;28;19953;-68
2022/04/08 13:13:13;;;;;;;;;;;7.40;99.90;;;;;;4953281;29;19934;-67
2022/04/08 13:15:40;;;;;;;;;;;7.20;99.90;;;;;;4954699;28;19949;-68
2022/04/08 13:18:08;;;;;;;;;;;7.10;99.90;;;;;;4953510;29;19996;-68
2022/04/08 13:20:36;;;;;;;;;;;7.00;99.90;;;;;;4954096;28;20386;-68
2022/04/08 13:23:03;;;;;;;;;;;7.10;99.90;;;;;;4953192;29;19930;-68
2022/04/08 13:25:31;;;;;;;;;;;7.00;99.90;;;;;;4955801;28;19969;-67
2022/04/08 13:27:58;;;;;;;;;;;7.00;99.90;;;;;;4954165;28;19922;-68
2022/04/08 13:30:25;;;;;;;;;;;7.00;99.90;;;;;;4954045;28;19926;-68
2022/04/08 13:32:52;;;;;;;;;;;7.00;99.90;;;;;;4953120;28;20007;-69
2022/04/08 13:35:20;;;;;;;;;;;7.10;99.90;;;;;;4953651;28;19926;-68
2022/04/08 13:37:47;;;;;;;;;;;7.00;99.90;;;;;;4953785;29;20395;-68
2022/04/08 13:40:14;;;;;;;;;;;7.00;99.90;;;;;;4952099;29;20423;-69
2022/04/08 13:42:41;;;;;;;;;;;7.10;99.90;;;;;;4951453;29;19970;-69
2022/04/08 13:45:09;;;;;;;;;;;7.00;99.90;;;;;;4954254;28;19965;-69
2022/04/08 13:47:36;;;;;;;;;;;7.10;99.90;;;;;;4948357;28;20676;-69
2022/04/08 13:50:03;;;;;;;;;;;7.10;99.90;;;;;;4941862;29;20032;-68
2022/04/08 13:52:31;;;;;;;;;;;7.20;99.90;;;;;;4948518;29;20385;-70
2022/04/08 13:54:58;;;;;;;;;;;7.20;99.90;;;;;;4953253;28;20425;-69
2022/04/08 13:57:25;;;;;;;;;;;7.20;99.90;;;;;;4951803;28;20303;-69
2022/04/08 13:59:52;;;;;;;;;;;7.20;99.90;;;;;;4940925;29;19937;-68
2022/04/08 14:02:20;;;;;;;;;;;7.20;99.90;;;;;;4953961;28;20436;-68
2022/04/08 14:04:47;;;;;;;;;;;7.20;99.90;;;;;;4946026;28;20158;-67
2022/04/08 14:07:14;;;;;;;;;;;7.20;99.90;;;;;;4952363;28;19928;-67
2022/04/08 14:09:42;;;;;;;;;;;7.30;99.90;;;;;;4934381;28;19927;-66
2022/04/08 14:12:11;;;;;;;;;;;7.30;99.90;;;;;;4933914;29;19977;-68
2022/04/08 14:14:41;;;;;;;;;;;7.20;99.90;;;;;;4948848;29;19973;-67
2022/04/08 14:17:29;;;;;;;;;;;7.20;99.90;;;;;;4952049;28;20374;-67
2022/04/08 14:19:56;;;;;;;;;;;7.20;99.90;;;;;;4952099;28;19926;-68
2022/04/08 14:22:23;;;;;;;;;;;7.30;99.90;;;;;;4950010;29;19937;-68
2022/04/08 14:24:51;;;;;;;;;;;7.30;99.90;;;;;;4954194;28;19926;-68
2022/04/08 14:27:38;;;;;;;;;;;7.30;99.90;;;;;;4945775;29;20393;-68
2022/04/08 14:30:06;;;;;;;;;;;7.30;99.90;;;;;;4952522;28;20420;-69
2022/04/08 14:32:33;;;;;;;;;;;7.30;99.90;;;;;;4951601;28;19926;-69
2022/04/08 14:35:00;;;;;;;;;;;7.30;99.90;;;;;;4952985;28;20013;-68
2022/04/08 14:37:30;;;;;;;;;;;7.30;99.90;;;;;;4953504;28;19926;-70